Time;durP1;ratioP1;P1;durP2;ratioP2;P2;SDS_P1;SDS_P2;PMS_P1;PMS_P2;Temp;Humidity;BMP_temperature;BMP_pressure;BME280_temperature;BME280_humidity;BME280_pressure;Samples;Min_cycle;Max_cycle;Signal;HPM_P1;HPM_P2
2021/12/08 00:02:00;;;;;;;;;;;;;;;3.50;100.00;99199.94;5040426;28;19916;-43
2021/12/08 00:04:25;;;;;;;;;;;;;;;3.51;100.00;99192.84;5041463;28;19923;-45
2021/12/08 00:06:51;;;;;;;;;;;;;;;3.52;100.00;99186.59;5040255;28;19909;-43
2021/12/08 00:14:33;;;;;;;;;;;;;;;3.56;100.00;99177.34;5039420;28;19962;-43
2021/12/08 00:16:59;;;;;;;;;;;;;;;3.59;100.00;99174.41;5041278;28;19916;-46
2021/12/08 00:19:24;;;;;;;;;;;;;;;3.62;100.00;99168.81;5041320;28;20467;-44
2021/12/08 00:21:49;;;;;;;;;;;;;;;3.64;100.00;99161.56;5052451;28;19905;-48
2021/12/08 00:24:14;;;;;;;;;;;;;;;3.69;100.00;99161.91;5060454;28;20268;-45
2021/12/08 00:26:39;;;;;;;;;;;;;;;3.73;100.00;99165.06;5061041;28;19915;-45
2021/12/08 00:29:05;;;;;;;;;;;;;;;3.77;100.00;99171.69;5060753;28;19912;-45
2021/12/08 00:31:30;;;;;;;;;;;;;;;3.81;100.00;99169.56;5061133;28;20321;-48
2021/12/08 00:33:55;;;;;;;;;;;;;;;3.84;100.00;99170.06;5059939;28;19908;-45
2021/12/08 00:36:27;;;;;;;;;;;;;;;3.86;100.00;99186.56;5057192;28;19961;-44
2021/12/08 00:38:53;;;;;;;;;;;;;;;3.90;100.00;99187.09;5060756;28;19960;-44
2021/12/08 00:41:18;;;;;;;;;;;;;;;3.93;100.00;99171.75;5060507;28;20438;-47
2021/12/08 00:43:43;;;;;;;;;;;;;;;3.98;100.00;99160.72;5042815;28;19912;-46
2021/12/08 00:46:08;;;;;;;;;;;;;;;4.01;100.00;99155.13;5060407;28;19920;-46
2021/12/08 00:48:34;;;;;;;;;;;;;;;4.09;100.00;99162.22;5052182;28;19971;-43
2021/12/08 00:50:59;;;;;;;;;;;;;;;4.14;100.00;99154.66;5039963;28;19916;-42
2021/12/08 00:53:24;;;;;;;;;;;;;;;4.22;100.00;99167.88;5038108;28;20458;-43
2021/12/08 00:55:50;;;;;;;;;;;;;;;4.32;100.00;99175.66;5040170;28;19947;-44
2021/12/08 00:58:15;;;;;;;;;;;;;;;4.41;100.00;99185.28;5039159;28;20006;-45
2021/12/08 01:00:42;;;;;;;;;;;;;;;4.49;100.00;99185.28;5040320;28;20277;-46
2021/12/08 01:03:08;;;;;;;;;;;;;;;4.57;100.00;99195.03;5040289;28;19908;-44
2021/12/08 01:05:36;;;;;;;;;;;;;;;4.63;100.00;99202.34;5039275;28;19908;-46
2021/12/08 01:08:03;;;;;;;;;;;;;;;4.66;100.00;99191.41;5039203;28;20317;-45
2021/12/08 01:10:28;;;;;;;;;;;;;;;4.69;100.00;99190.25;5039773;28;19909;-44
2021/12/08 01:12:55;;;;;;;;;;;;;;;4.72;100.00;99207.59;5039729;28;19919;-45
2021/12/08 01:15:21;;;;;;;;;;;;;;;4.75;100.00;99202.84;5037765;28;19998;-45
2021/12/08 01:17:46;;;;;;;;;;;;;;;4.82;100.00;99193.25;5038983;28;20527;-44
2021/12/08 01:20:12;;;;;;;;;;;;;;;4.91;100.00;99207.31;5038979;28;20007;-44
2021/12/08 01:22:38;;;;;;;;;;;;;;;4.94;100.00;99209.63;5038726;28;20411;-44
2021/12/08 01:25:04;;;;;;;;;;;;;;;4.98;100.00;99216.22;5037928;28;19917;-45
2021/12/08 01:27:30;;;;;;;;;;;;;;;5.01;100.00;99209.78;5040122;28;20136;-43
2021/12/08 01:29:56;;;;;;;;;;;;;;;5.01;100.00;99215.91;5039795;28;19916;-44
2021/12/08 01:32:21;;;;;;;;;;;;;;;5.03;100.00;99213.09;5039644;28;19908;-45
2021/12/08 01:34:46;;;;;;;;;;;;;;;5.05;100.00;99214.56;5039080;28;19925;-44
2021/12/08 01:37:11;;;;;;;;;;;;;;;5.07;100.00;99213.59;5038093;28;19912;-47
2021/12/08 01:39:37;;;;;;;;;;;;;;;5.10;100.00;99213.25;5039028;28;19942;-44
2021/12/08 01:42:03;;;;;;;;;;;;;;;5.13;100.00;99212.94;5037922;28;19985;-44
2021/12/08 01:47:12;;;;;;;;;;;;;;;5.12;100.00;99224.50;5038829;28;19915;-43
2021/12/08 01:49:37;;;;;;;;;;;;;;;5.12;100.00;99216.56;5050413;28;19908;-45
2021/12/08 01:52:02;;;;;;;;;;;;;;;5.15;100.00;99230.28;5057855;28;19931;-44
2021/12/08 01:54:28;;;;;;;;;;;;;;;5.13;100.00;99234.91;5058833;28;20125;-46
2021/12/08 01:56:53;;;;;;;;;;;;;;;5.12;100.00;99233.25;5059166;28;19908;-43
2021/12/08 01:59:18;;;;;;;;;;;;;;;5.11;100.00;99231.63;5058355;28;20503;-43
2021/12/08 02:01:44;;;;;;;;;;;;;;;5.13;100.00;99239.41;5059294;28;19960;-47
2021/12/08 02:04:10;;;;;;;;;;;;;;;5.12;100.00;99241.19;5058651;28;19912;-45
2021/12/08 02:06:37;;;;;;;;;;;;;;;5.12;100.00;99235.09;5057854;28;19916;-43
2021/12/08 02:09:04;;;;;;;;;;;;;;;5.12;100.00;99245.66;5058710;28;19908;-44
2021/12/08 02:11:29;;;;;;;;;;;;;;;5.14;100.00;99246.31;5058448;28;20022;-43
2021/12/08 02:14:00;;;;;;;;;;;;;;;5.15;100.00;99242.69;5056699;28;19986;-43
2021/12/08 02:16:25;;;;;;;;;;;;;;;5.15;100.00;99251.44;5057423;28;19909;-43
2021/12/08 02:18:52;;;;;;;;;;;;;;;5.13;100.00;99245.50;5058697;28;19912;-46
2021/12/08 02:21:22;;;;;;;;;;;;;;;5.13;100.00;99253.44;5035385;28;19909;-45
2021/12/08 02:23:47;;;;;;;;;;;;;;;5.15;100.00;99269.16;5037753;28;19916;-45
2021/12/08 02:26:13;;;;;;;;;;;;;;;5.13;100.00;99269.31;5038598;28;19917;-47
2021/12/08 02:28:38;;;;;;;;;;;;;;;5.13;100.00;99273.78;5038555;28;19908;-45
2021/12/08 02:31:05;;;;;;;;;;;;;;;5.12;100.00;99277.41;5038879;28;20019;-46
2021/12/08 02:49:38;;;;;;;;;;;;;;;5.32;100.00;99294.63;5053306;28;19974;-45
2021/12/08 02:52:04;;;;;;;;;;;;;;;5.36;100.00;99295.13;5057565;28;20045;-44
2021/12/08 02:54:33;;;;;;;;;;;;;;;5.37;100.00;99297.59;5057636;28;20556;-45
2021/12/08 02:56:58;;;;;;;;;;;;;;;5.41;100.00;99288.34;5057403;28;20533;-50
2021/12/08 02:59:23;;;;;;;;;;;;;;;5.40;100.00;99288.53;5057466;28;19923;-47
2021/12/08 03:01:48;;;;;;;;;;;;;;;5.41;100.00;99290.16;5057485;28;19925;-47
2021/12/08 03:04:14;;;;;;;;;;;;;;;5.39;100.00;99286.84;5057231;28;19912;-46
2021/12/08 03:06:39;;;;;;;;;;;;;;;5.40;100.00;99285.88;5055992;28;19935;-48
2021/12/08 03:09:05;;;;;;;;;;;;;;;5.41;100.00;99290.16;5057069;28;19915;-47
2021/12/08 03:11:30;;;;;;;;;;;;;;;5.38;100.00;99293.13;5058075;28;20364;-47
2021/12/08 03:14:02;;;;;;;;;;;;;;;5.35;100.00;99288.19;5058055;28;19915;-43
2021/12/08 03:16:28;;;;;;;;;;;;;;;5.33;100.00;99287.50;5058751;28;19908;-45
2021/12/08 03:18:53;;;;;;;;;;;;;;;5.35;100.00;99288.19;5062334;28;20361;-43
2021/12/08 03:21:20;;;;;;;;;;;;;;;5.32;100.00;99293.81;5050119;28;19943;-43
2021/12/08 03:23:54;;;;;;;;;;;;;;;5.35;100.00;99314.66;5041781;28;20315;-45
2021/12/08 03:26:26;;;;;;;;;;;;;;;5.36;100.00;99318.94;5039869;28;19985;-45
2021/12/08 03:28:59;;;;;;;;;;;;;;;5.34;100.00;99324.41;5042103;28;19913;-45
2021/12/08 03:31:30;;;;;;;;;;;;;;;5.33;100.00;99316.63;5040755;28;20002;-44
2021/12/08 03:33:55;;;;;;;;;;;;;;;5.31;100.00;99322.13;5042271;28;19913;-45
2021/12/08 03:36:21;;;;;;;;;;;;;;;5.35;100.00;99317.31;5039784;28;19915;-46
2021/12/08 03:38:46;;;;;;;;;;;;;;;5.34;100.00;99316.47;5041637;28;20007;-45
2021/12/08 03:41:11;;;;;;;;;;;;;;;5.34;100.00;99313.00;5040780;28;20495;-44
2021/12/08 03:43:37;;;;;;;;;;;;;;;5.34;100.00;99313.00;5039984;28;19928;-45
2021/12/08 03:46:03;;;;;;;;;;;;;;;5.32;100.00;99318.44;5041472;28;19935;-45
2021/12/08 03:48:46;;;;;;;;;;;;;;;5.33;100.00;99319.28;5048216;28;19952;-45
2021/12/08 03:51:11;;;;;;;;;;;;;;;5.33;100.00;99313.97;5059421;28;19953;-46
2021/12/08 03:53:37;;;;;;;;;;;;;;;5.28;100.00;99313.66;5061428;28;19993;-46
2021/12/08 03:56:02;;;;;;;;;;;;;;;5.24;100.00;99323.75;5061251;28;20004;-44
2021/12/08 03:58:27;;;;;;;;;;;;;;;5.17;100.00;99325.38;5061169;28;19970;-44
2021/12/08 04:00:54;;;;;;;;;;;;;;;5.06;100.00;99329.19;5061698;28;19915;-45
2021/12/08 04:03:19;;;;;;;;;;;;;;;4.98;100.00;99329.16;5060554;28;19912;-46
2021/12/08 04:06:01;;;;;;;;;;;;;;;4.89;100.00;99320.41;5060268;28;19908;-44
2021/12/08 04:08:34;;;;;;;;;;;;;;;4.87;100.00;99327.63;5061583;28;19908;-44
2021/12/08 04:11:04;;;;;;;;;;;;;;;4.84;100.00;99331.44;5061260;28;19912;-43
2021/12/08 04:13:35;;;;;;;;;;;;;;;4.81;100.00;99333.59;5060691;28;19920;-47
2021/12/08 04:16:01;;;;;;;;;;;;;;;4.77;100.00;99330.44;5061032;28;19908;-43
2021/12/08 04:18:26;;;;;;;;;;;;;;;4.76;100.00;99336.72;5043447;28;19957;-45
2021/12/08 04:20:53;;;;;;;;;;;;;;;4.77;100.00;99338.38;5055014;28;19939;-45
2021/12/08 04:23:19;;;;;;;;;;;;;;;4.75;100.00;99343.00;5040002;28;20645;-44
2021/12/08 04:25:47;;;;;;;;;;;;;;;4.74;100.00;99348.47;5040903;28;19920;-46
2021/12/08 04:28:15;;;;;;;;;;;;;;;4.71;100.00;99351.41;5041085;28;19908;-47
2021/12/08 04:30:42;;;;;;;;;;;;;;;4.65;100.00;99345.78;5040875;28;20210;-47
2021/12/08 04:33:08;;;;;;;;;;;;;;;4.58;100.00;99346.56;5040848;28;19909;-45
2021/12/08 04:35:34;;;;;;;;;;;;;;;4.52;100.00;99348.03;5036865;28;19999;-45
2021/12/08 04:38:03;;;;;;;;;;;;;;;4.46;100.00;99354.81;5040791;28;20366;-44
2021/12/08 04:41:17;;;;;;;;;;;;;;;4.45;100.00;99362.88;5040682;28;19909;-44
2021/12/08 04:43:27;;;;;;;;;;;;;;;4.41;100.00;99358.88;5027938;28;19913;-47
2021/12/08 04:49:25;;;;;;;;;;;;;;;4.41;100.00;99345.66;5048192;28;20291;-49
2021/12/08 04:52:37;;;;;;;;;;;;;;;4.34;100.00;99334.91;5055416;28;19932;-43
2021/12/08 05:00:46;;;;;;;;;;;;;;;4.33;100.00;99369.41;5058715;28;20011;-44
2021/12/08 05:08:44;;;;;;;;;;;;;;;4.36;100.00;99363.81;5039928;28;19920;-43
2021/12/08 05:11:39;;;;;;;;;;;;;;;4.34;100.00;99371.91;5040291;28;19919;-43
2021/12/08 05:14:07;;;;;;;;;;;;;;;4.30;100.00;99394.34;5030504;28;19916;-45
2021/12/08 05:16:33;;;;;;;;;;;;;;;4.29;100.00;99393.53;5048226;28;19908;-44
2021/12/08 05:19:01;;;;;;;;;;;;;;;4.26;100.00;99388.56;5049594;28;19920;-43
2021/12/08 05:21:31;;;;;;;;;;;;;;;4.20;100.00;99380.41;5040964;28;20058;-45
2021/12/08 05:24:00;;;;;;;;;;;;;;;4.15;100.00;99383.53;5040089;28;19970;-43
2021/12/08 05:26:32;;;;;;;;;;;;;;;4.20;100.00;99383.06;5037909;28;19920;-44
2021/12/08 05:29:00;;;;;;;;;;;;;;;4.19;100.00;99390.16;5037995;28;20244;-47
2021/12/08 05:31:28;;;;;;;;;;;;;;;4.17;100.00;99373.63;5038457;28;20258;-44
2021/12/08 05:33:54;;;;;;;;;;;;;;;4.15;100.00;99378.25;5040087;28;20272;-44
2021/12/08 05:36:20;;;;;;;;;;;;;;;4.12;100.00;99375.91;5037483;28;19923;-44
2021/12/08 05:38:45;;;;;;;;;;;;;;;4.06;100.00;99382.66;5038805;28;19917;-44
2021/12/08 05:41:24;;;;;;;;;;;;;;;4.02;100.00;99389.25;5040022;28;19970;-44
2021/12/08 05:43:49;;;;;;;;;;;;;;;3.97;100.00;99380.94;5021403;28;20361;-45
2021/12/08 05:46:15;;;;;;;;;;;;;;;4.00;100.00;99388.53;5039468;28;19958;-45
2021/12/08 05:48:41;;;;;;;;;;;;;;;3.98;100.00;99398.44;5047190;28;20600;-46
2021/12/08 05:51:14;;;;;;;;;;;;;;;3.95;100.00;99395.28;5057494;28;19998;-42
2021/12/08 05:53:41;;;;;;;;;;;;;;;3.91;100.00;99400.84;5041175;28;19965;-43
2021/12/08 05:56:07;;;;;;;;;;;;;;;3.91;100.00;99400.03;5058812;28;20606;-44
2021/12/08 05:58:32;;;;;;;;;;;;;;;3.89;100.00;99402.84;5057952;28;19961;-43
2021/12/08 06:01:18;;;;;;;;;;;;;;;3.88;100.00;99403.81;5059138;28;20069;-42
2021/12/08 06:03:44;;;;;;;;;;;;;;;3.89;100.00;99407.28;5059829;28;19912;-43
2021/12/08 06:06:11;;;;;;;;;;;;;;;3.91;100.00;99407.97;5057117;28;20586;-44
2021/12/08 06:08:37;;;;;;;;;;;;;;;3.96;100.00;99418.06;5057913;28;19908;-44
2021/12/08 06:11:03;;;;;;;;;;;;;;;3.97;100.00;99425.00;5058989;28;20587;-43
2021/12/08 06:13:28;;;;;;;;;;;;;;;3.95;100.00;99419.03;5058570;28;20029;-43
2021/12/08 06:15:54;;;;;;;;;;;;;;;3.94;100.00;99431.44;5059261;28;19913;-44
2021/12/08 06:18:22;;;;;;;;;;;;;;;3.91;100.00;99439.66;5058629;28;19920;-43
2021/12/08 06:20:49;;;;;;;;;;;;;;;3.85;100.00;99434.97;5050052;28;20433;-44
2021/12/08 06:23:14;;;;;;;;;;;;;;;3.83;100.00;99440.41;5058907;28;19919;-45
2021/12/08 06:25:40;;;;;;;;;;;;;;;3.83;100.00;99444.88;5057163;28;20581;-42
2021/12/08 06:28:07;;;;;;;;;;;;;;;3.84;100.00;99443.91;5057769;28;20006;-43
2021/12/08 06:30:34;;;;;;;;;;;;;;;3.85;100.00;99442.91;5057543;28;19963;-43
2021/12/08 06:32:59;;;;;;;;;;;;;;;3.84;100.00;99460.56;5058054;28;19912;-42
2021/12/08 06:35:28;;;;;;;;;;;;;;;3.88;100.00;99466.38;5056681;28;19950;-43
2021/12/08 06:37:55;;;;;;;;;;;;;;;3.88;100.00;99461.09;5057859;28;20288;-43
2021/12/08 06:40:23;;;;;;;;;;;;;;;3.83;100.00;99468.63;5056356;28;19908;-42
2021/12/08 06:42:50;;;;;;;;;;;;;;;3.79;100.00;99467.28;5058511;28;20051;-42
2021/12/08 06:45:21;;;;;;;;;;;;;;;3.73;100.00;99461.63;5055309;28;19920;-42
2021/12/08 06:47:47;;;;;;;;;;;;;;;3.71;100.00;99458.28;5056226;28;19915;-43
2021/12/08 06:50:15;;;;;;;;;;;;;;;3.67;100.00;99458.78;5036704;28;19914;-45
2021/12/08 06:52:40;;;;;;;;;;;;;;;3.65;100.00;99458.06;5056352;28;19908;-41
2021/12/08 06:55:09;;;;;;;;;;;;;;;3.63;100.00;99460.88;5054659;28;20520;-41
2021/12/08 06:57:56;;;;;;;;;;;;;;;3.69;100.00;99456.81;5020169;28;20482;-44
2021/12/08 07:00:35;;;;;;;;;;;;;;;3.66;100.00;99457.91;5065607;28;20347;-43
2021/12/08 07:03:30;;;;;;;;;;;;;;;3.66;100.00;99454.47;5051357;28;19912;-47
2021/12/08 07:08:22;;;;;;;;;;;;;;;3.55;100.00;99464.25;5049588;28;20270;-44
2021/12/08 07:10:48;;;;;;;;;;;;;;;3.53;100.00;99470.66;5050224;28;20537;-42
2021/12/08 07:13:19;;;;;;;;;;;;;;;3.54;100.00;99470.50;5054986;28;19943;-42
2021/12/08 07:15:50;;;;;;;;;;;;;;;3.51;100.00;99481.38;5047867;28;20114;-42
2021/12/08 07:18:18;;;;;;;;;;;;;;;3.47;100.00;99487.09;5054264;28;20420;-44
2021/12/08 07:20:47;;;;;;;;;;;;;;;3.44;100.00;99490.03;5049446;28;20518;-43
2021/12/08 07:23:17;;;;;;;;;;;;;;;3.43;100.00;99497.13;5034955;28;19908;-42
2021/12/08 07:25:43;;;;;;;;;;;;;;;3.43;100.00;99505.06;5041260;28;19920;-42
2021/12/08 07:28:10;;;;;;;;;;;;;;;3.41;100.00;99509.66;5037810;28;19931;-42
2021/12/08 07:30:37;;;;;;;;;;;;;;;3.41;100.00;99511.44;5055193;28;19955;-41
2021/12/08 07:33:03;;;;;;;;;;;;;;;3.41;100.00;99519.34;5055719;28;19913;-43
2021/12/08 07:35:41;;;;;;;;;;;;;;;3.36;100.00;99520.66;5038519;28;19912;-42
2021/12/08 07:38:07;;;;;;;;;;;;;;;3.36;100.00;99522.44;5057751;28;19917;-44
2021/12/08 07:40:39;;;;;;;;;;;;;;;3.36;100.00;99535.63;5056874;28;20424;-44
2021/12/08 07:43:08;;;;;;;;;;;;;;;3.36;100.00;99541.75;5056634;28;19923;-42
2021/12/08 07:45:38;;;;;;;;;;;;;;;3.33;100.00;99541.22;5056861;28;19909;-42
2021/12/08 07:48:08;;;;;;;;;;;;;;;3.30;100.00;99538.88;5057375;28;19954;-43
2021/12/08 07:50:35;;;;;;;;;;;;;;;3.36;100.00;99541.75;5056225;28;20395;-41
2021/12/08 07:53:01;;;;;;;;;;;;;;;3.36;100.00;99541.75;5061610;28;20339;-43
2021/12/08 07:55:31;;;;;;;;;;;;;;;3.34;100.00;99540.22;5046771;28;19963;-42
2021/12/08 07:57:57;;;;;;;;;;;;;;;3.31;100.00;99524.69;5049168;28;19916;-44
2021/12/08 08:00:28;;;;;;;;;;;;;;;3.31;100.00;99533.44;5061740;28;19916;-46
2021/12/08 08:02:54;;;;;;;;;;;;;;;3.29;100.00;99531.91;5073630;28;19911;-46
2021/12/08 08:05:22;;;;;;;;;;;;;;;3.38;100.00;99532.84;5076142;28;20014;-45
2021/12/08 08:07:48;;;;;;;;;;;;;;;3.43;100.00;99536.72;5061665;28;19900;-42
2021/12/08 08:10:15;;;;;;;;;;;;;;;3.54;100.00;99533.03;5060969;28;19927;-45
2021/12/08 08:12:41;;;;;;;;;;;;;;;3.62;100.00;99535.78;5064440;28;20684;-43
2021/12/08 08:15:12;;;;;;;;;;;;;;;3.71;100.00;99552.53;5072271;28;19961;-43
2021/12/08 08:17:42;;;;;;;;;;;;;;;3.78;100.00;99540.38;5080301;28;19916;-43
2021/12/08 08:20:10;;;;;;;;;;;;;;;3.79;100.00;99544.69;5079500;28;19915;-45
2021/12/08 08:22:36;;;;;;;;;;;;;;;3.74;100.00;99549.59;5042318;28;19916;-44
2021/12/08 08:25:03;;;;;;;;;;;;;;;3.68;100.00;99535.19;5040073;28;19927;-43
2021/12/08 08:27:28;;;;;;;;;;;;;;;3.63;100.00;99524.25;5040775;28;20368;-44
2021/12/08 08:29:55;;;;;;;;;;;;;;;3.59;100.00;99537.88;5049125;28;19908;-45
2021/12/08 08:32:25;;;;;;;;;;;;;;;3.66;100.00;99552.13;5058488;28;20356;-47
2021/12/08 08:34:52;;;;;;;;;;;;;;;3.63;100.00;99542.72;5057938;28;20228;-47
2021/12/08 08:37:18;;;;;;;;;;;;;;;3.61;100.00;99549.94;5055306;28;19922;-47
2021/12/08 08:39:49;;;;;;;;;;;;;;;3.62;100.00;99530.50;5037082;28;19916;-46
2021/12/08 08:42:20;;;;;;;;;;;;;;;3.69;100.00;99534.19;5058322;28;19998;-46
2021/12/08 08:44:45;;;;;;;;;;;;;;;3.71;100.00;99534.88;5040300;28;20040;-45
2021/12/08 08:47:16;;;;;;;;;;;;;;;3.72;100.00;99536.53;5059307;28;20463;-44
2021/12/08 08:49:42;;;;;;;;;;;;;;;3.68;100.00;99532.53;5057455;28;20023;-44
2021/12/08 08:52:13;;;;;;;;;;;;;;;3.69;100.00;99525.44;5057586;28;19995;-46
2021/12/08 08:54:40;;;;;;;;;;;;;;;3.72;100.00;99520.69;5057668;28;19912;-48
2021/12/08 08:57:08;;;;;;;;;;;;;;;3.76;100.00;99536.25;5055674;28;19959;-44
2021/12/08 08:59:40;;;;;;;;;;;;;;;3.82;100.00;99533.00;5064618;28;20330;-44
2021/12/08 09:02:08;;;;;;;;;;;;;;;3.85;100.00;99532.69;5064361;28;19926;-47
2021/12/08 09:04:35;;;;;;;;;;;;;;;3.92;100.00;99544.31;5062663;28;19916;-45
2021/12/08 09:07:03;;;;;;;;;;;;;;;3.90;100.00;99549.78;5065509;28;19923;-46
2021/12/08 09:09:30;;;;;;;;;;;;;;;3.94;100.00;99550.31;5061075;28;20250;-45
2021/12/08 09:12:04;;;;;;;;;;;;;;;3.93;100.00;99543.34;5058008;28;19912;-46
2021/12/08 09:14:34;;;;;;;;;;;;;;;3.93;100.00;99549.44;5057245;28;19912;-44
2021/12/08 09:17:05;;;;;;;;;;;;;;;3.93;100.00;99552.09;5058474;28;19919;-45
2021/12/08 09:19:35;;;;;;;;;;;;;;;3.98;100.00;99559.56;5057674;28;19935;-45
2021/12/08 09:22:01;;;;;;;;;;;;;;;4.03;100.00;99554.66;5062288;28;20424;-44
2021/12/08 09:24:31;;;;;;;;;;;;;;;4.04;100.00;99555.47;5063127;28;20010;-43
2021/12/08 09:26:58;;;;;;;;;;;;;;;4.16;100.00;99558.72;5058220;28;19931;-46
2021/12/08 09:29:45;;;;;;;;;;;;;;;4.30;100.00;99564.31;5057691;28;19908;-46
2021/12/08 09:32:18;;;;;;;;;;;;;;;4.44;100.00;99570.88;5057877;28;19912;-45
2021/12/08 09:34:58;;;;;;;;;;;;;;;4.52;100.00;99572.75;5055244;28;20291;-44
2021/12/08 09:37:29;;;;;;;;;;;;;;;4.53;100.00;99586.81;5056199;28;20451;-46
2021/12/08 09:39:58;;;;;;;;;;;;;;;4.57;100.00;99582.88;5038603;28;20023;-47
2021/12/08 09:42:41;;;;;;;;;;;;;;;4.62;99.27;99594.66;5056720;28;19938;-44
2021/12/08 09:45:09;;;;;;;;;;;;;;;4.67;99.22;99604.78;5058114;28;19923;-46
2021/12/08 09:47:35;;;;;;;;;;;;;;;4.71;99.13;99590.25;5073205;28;20772;-45
2021/12/08 09:50:01;;;;;;;;;;;;;;;4.75;98.72;99588.13;5055933;28;19912;-44
2021/12/08 09:52:27;;;;;;;;;;;;;;;4.74;99.34;99583.84;5057033;28;20181;-45
2021/12/08 09:54:56;;;;;;;;;;;;;;;4.70;99.14;99574.53;5056007;28;19908;-45
2021/12/08 09:57:22;;;;;;;;;;;;;;;4.67;100.00;99575.69;5055979;28;20411;-45
2021/12/08 09:59:47;;;;;;;;;;;;;;;4.67;99.12;99568.56;5056980;28;19923;-45
2021/12/08 10:02:33;;;;;;;;;;;;;;;4.67;99.99;99562.47;5057339;28;19909;-44
2021/12/08 10:05:00;;;;;;;;;;;;;;;4.67;100.00;99563.28;5055399;28;19912;-44
2021/12/08 10:07:26;;;;;;;;;;;;;;;4.70;98.21;99559.53;5055980;28;19931;-44
2021/12/08 10:09:51;;;;;;;;;;;;;;;4.72;98.15;99554.91;5056751;28;20396;-45
2021/12/08 10:12:16;;;;;;;;;;;;;;;4.72;99.43;99546.13;5057264;28;20003;-48
2021/12/08 10:14:42;;;;;;;;;;;;;;;4.74;99.25;99547.63;5057198;28;20184;-47
2021/12/08 10:17:07;;;;;;;;;;;;;;;4.79;98.26;99547.19;5056765;28;19999;-45
2021/12/08 10:19:32;;;;;;;;;;;;;;;4.79;98.57;99542.69;5056097;28;19965;-44
2021/12/08 10:21:58;;;;;;;;;;;;;;;4.85;97.97;99543.88;5041282;28;19948;-45
2021/12/08 10:24:25;;;;;;;;;;;;;;;4.89;97.83;99553.19;5036180;28;19916;-46
2021/12/08 10:26:52;;;;;;;;;;;;;;;4.91;97.44;99550.38;5036808;28;19944;-45
2021/12/08 10:29:27;;;;;;;;;;;;;;;4.94;97.52;99539.47;5035861;28;20042;-45
2021/12/08 10:31:53;;;;;;;;;;;;;;;4.96;96.69;99534.88;5035838;28;20173;-47
2021/12/08 10:36:53;;;;;;;;;;;;;;;4.96;98.14;99530.41;5035148;28;19944;-44
2021/12/08 10:39:18;;;;;;;;;;;;;;;5.00;96.10;99525.63;5035487;28;20414;-49
2021/12/08 10:41:43;;;;;;;;;;;;;;;5.01;96.08;99536.06;5037088;28;20373;-45
2021/12/08 10:44:09;;;;;;;;;;;;;;;5.03;96.11;99520.84;5034665;28;19913;-45
2021/12/08 10:46:35;;;;;;;;;;;;;;;5.03;97.49;99531.41;5036169;28;20418;-46
2021/12/08 10:49:11;;;;;;;;;;;;;;;5.04;96.67;99524.31;5046972;28;19940;-44
2021/12/08 10:54:27;;;;;;;;;;;;;;;5.02;98.36;99527.13;5056386;28;19953;-46
2021/12/08 10:56:57;;;;;;;;;;;;;;;5.03;97.38;99530.59;5038491;28;19926;-46
2021/12/08 10:59:23;;;;;;;;;;;;;;;4.99;97.42;99535.38;5055711;28;19913;-44
2021/12/08 11:01:49;;;;;;;;;;;;;;;4.99;97.13;99540.69;5056633;28;20422;-44
2021/12/08 11:04:16;;;;;;;;;;;;;;;5.03;96.13;99542.00;5055704;28;19912;-48
2021/12/08 11:06:41;;;;;;;;;;;;;;;5.08;96.77;99549.47;5055108;28;19908;-46
2021/12/08 11:09:14;;;;;;;;;;;;;;;5.13;95.72;99555.13;5055500;28;20399;-46
2021/12/08 11:11:43;;;;;;;;;;;;;;;5.15;96.68;99553.16;5055855;28;20428;-44
2021/12/08 11:14:09;;;;;;;;;;;;;;;5.19;96.69;99558.94;5054551;28;19935;-45
2021/12/08 11:16:36;;;;;;;;;;;;;;;5.25;96.87;99570.75;5056067;28;19916;-43
2021/12/08 11:19:08;;;;;;;;;;;;;;;5.28;96.28;99581.84;5055928;28;19912;-44
2021/12/08 11:21:37;;;;;;;;;;;;;;;5.40;94.26;99585.88;5043510;28;20355;-46
2021/12/08 11:24:10;;;;;;;;;;;;;;;5.60;95.42;99593.53;5035518;28;20356;-44
2021/12/08 11:26:41;;;;;;;;;;;;;;;5.78;94.18;99596.09;5036147;28;20332;-47
2021/12/08 11:29:06;;;;;;;;;;;;;;;5.83;93.25;99593.81;5035575;28;20325;-43
2021/12/08 11:31:40;;;;;;;;;;;;;;;5.82;93.17;99591.31;5035709;28;19955;-43
2021/12/08 11:34:12;;;;;;;;;;;;;;;5.86;92.43;99597.97;5035017;28;20003;-45
2021/12/08 11:36:38;;;;;;;;;;;;;;;5.87;92.75;99602.25;5033961;28;19954;-45
2021/12/08 11:39:23;;;;;;;;;;;;;;;5.87;91.34;99604.91;5037175;28;19939;-45
2021/12/08 11:41:51;;;;;;;;;;;;;;;5.86;93.32;99601.44;5040154;28;19931;-44
2021/12/08 11:44:18;;;;;;;;;;;;;;;5.93;93.24;99610.38;5036667;28;19920;-43
2021/12/08 11:46:57;;;;;;;;;;;;;;;5.91;91.62;99615.03;5038131;28;19915;-45
2021/12/08 11:49:22;;;;;;;;;;;;;;;5.86;91.75;99613.84;5051877;28;19912;-45
2021/12/08 11:51:50;;;;;;;;;;;;;;;5.85;90.87;99622.78;5058449;28;19923;-44
2021/12/08 11:54:34;;;;;;;;;;;;;;;5.84;92.45;99621.13;5058358;28;19931;-44
2021/12/08 11:57:09;;;;;;;;;;;;;;;5.93;92.08;99622.81;5059113;28;19991;-43
2021/12/08 11:59:43;;;;;;;;;;;;;;;5.96;91.49;99626.00;5058548;28;20427;-43
2021/12/08 12:02:08;;;;;;;;;;;;;;;6.06;90.53;99627.66;5040666;28;20196;-45
2021/12/08 12:04:34;;;;;;;;;;;;;;;6.22;91.20;99640.16;5057602;28;19923;-46
2021/12/08 12:06:59;;;;;;;;;;;;;;;6.34;90.73;99647.63;5058717;28;20027;-47
2021/12/08 12:09:24;;;;;;;;;;;;;;;6.31;87.90;99650.63;5058881;28;19909;-45
2021/12/08 12:11:52;;;;;;;;;;;;;;;6.19;88.75;99643.94;5058883;28;19940;-44
2021/12/08 12:14:19;;;;;;;;;;;;;;;6.12;89.20;99648.25;5057479;28;19908;-44
2021/12/08 12:16:44;;;;;;;;;;;;;;;6.06;88.85;99654.16;5059018;28;19936;-44
2021/12/08 12:19:12;;;;;;;;;;;;;;;6.09;89.73;99652.06;5057866;28;19921;-43
2021/12/08 12:21:41;;;;;;;;;;;;;;;6.10;88.69;99674.09;5056043;28;19908;-44
2021/12/08 12:24:19;;;;;;;;;;;;;;;5.97;89.50;99677.16;5059708;28;20018;-45
2021/12/08 12:26:44;;;;;;;;;;;;;;;5.91;88.86;99673.31;5060819;28;20125;-47
2021/12/08 12:29:18;;;;;;;;;;;;;;;5.92;90.68;99676.78;5063279;28;20018;-47
2021/12/08 12:31:45;;;;;;;;;;;;;;;5.93;90.11;99691.72;5066728;28;19919;-45
2021/12/08 12:34:22;;;;;;;;;;;;;;;5.89;89.86;99683.25;5066802;28;20364;-46
2021/12/08 12:36:47;;;;;;;;;;;;;;;5.89;90.65;99691.22;5066120;28;19908;-42
2021/12/08 12:39:17;;;;;;;;;;;;;;;5.93;89.74;99711.09;5067299;28;19924;-43
2021/12/08 12:41:43;;;;;;;;;;;;;;;5.91;89.20;99680.44;5032670;28;20370;-44
2021/12/08 12:44:17;;;;;;;;;;;;;;;5.94;89.40;99683.59;5066268;28;20245;-48
2021/12/08 12:47:01;;;;;;;;;;;;;;;5.93;90.09;99691.72;5067715;28;19916;-44
2021/12/08 12:49:26;;;;;;;;;;;;;;;5.97;90.22;99690.44;5061809;28;20272;-47
2021/12/08 12:51:55;;;;;;;;;;;;;;;6.04;89.28;99690.63;5075233;28;19974;-45
2021/12/08 12:54:24;;;;;;;;;;;;;;;6.09;89.31;99690.97;5045498;28;19919;-48
2021/12/08 12:56:50;;;;;;;;;;;;;;;6.19;89.37;99685.53;5043361;28;20183;-43
2021/12/08 12:59:20;;;;;;;;;;;;;;;6.22;88.62;99678.09;5038869;28;20085;-43
2021/12/08 13:01:47;;;;;;;;;;;;;;;6.22;88.54;99683.38;5047164;28;19935;-47
2021/12/08 13:04:34;;;;;;;;;;;;;;;6.20;88.58;99688.03;5037632;28;19909;-47
2021/12/08 13:07:04;;;;;;;;;;;;;;;6.07;89.51;99685.00;5040032;28;19912;-44
2021/12/08 13:09:34;;;;;;;;;;;;;;;5.97;89.71;99675.38;5057280;28;19912;-44
2021/12/08 13:12:06;;;;;;;;;;;;;;;5.96;89.40;99678.19;5057277;28;19913;-45
2021/12/08 13:14:31;;;;;;;;;;;;;;;5.97;89.33;99679.81;5038158;28;19909;-43
2021/12/08 13:17:10;;;;;;;;;;;;;;;6.01;89.98;99690.94;5037642;28;20451;-45
2021/12/08 13:19:40;;;;;;;;;;;;;;;6.03;89.09;99687.16;5036150;28;19917;-45
2021/12/08 13:22:05;;;;;;;;;;;;;;;6.05;90.12;99694.94;5047860;28;19912;-43
2021/12/08 13:24:34;;;;;;;;;;;;;;;6.10;90.65;99703.25;5057077;28;19916;-49
2021/12/08 13:27:00;;;;;;;;;;;;;;;6.25;90.00;99704.28;5058371;28;19980;-43
2021/12/08 13:29:25;;;;;;;;;;;;;;;6.34;87.44;99702.47;5056708;28;19904;-43
2021/12/08 13:32:10;;;;;;;;;;;;;;;6.29;87.52;99704.78;5060146;28;19912;-44
2021/12/08 13:34:37;;;;;;;;;;;;;;;6.26;88.33;99716.56;5063092;28;19905;-44
2021/12/08 13:37:17;;;;;;;;;;;;;;;6.23;88.07;99713.38;5058433;28;19916;-43
2021/12/08 13:39:43;;;;;;;;;;;;;;;6.10;89.43;99722.63;5059491;28;19924;-45
2021/12/08 13:42:13;;;;;;;;;;;;;;;6.01;90.17;99718.28;5056844;28;19908;-44
2021/12/08 13:44:41;;;;;;;;;;;;;;;5.97;89.70;99717.78;5057413;28;19933;-47